sensor_id;sensor_type;location;lat;lon;timestamp;pressure;altitude;pressure_sealevel;temperature
41593;BMP180;28026;48.562;14.440;2024-03-08T00:01:23;93767.00;;;9.30
41593;BMP180;28026;48.562;14.440;2024-03-08T00:03:54;93761.00;;;9.30
41593;BMP180;28026;48.562;14.440;2024-03-08T00:06:25;93761.00;;;9.40
41593;BMP180;28026;48.562;14.440;2024-03-08T00:08:56;93767.00;;;9.40
41593;BMP180;28026;48.562;14.440;2024-03-08T00:11:27;93760.00;;;9.50
41593;BMP180;28026;48.562;14.440;2024-03-08T00:13:58;93765.00;;;9.50
41593;BMP180;28026;48.562;14.440;2024-03-08T00:16:28;93758.00;;;9.50
41593;BMP180;28026;48.562;14.440;2024-03-08T00:18:59;93753.00;;;9.50
41593;BMP180;28026;48.562;14.440;2024-03-08T00:21:30;93756.00;;;9.50
41593;BMP180;28026;48.562;14.440;2024-03-08T00:24:01;93759.00;;;9.50
41593;BMP180;28026;48.562;14.440;2024-03-08T00:26:32;93751.00;;;9.50
41593;BMP180;28026;48.562;14.440;2024-03-08T00:29:03;93753.00;;;9.50
41593;BMP180;28026;48.562;14.440;2024-03-08T00:31:34;93746.00;;;9.50
41593;BMP180;28026;48.562;14.440;2024-03-08T00:34:05;93750.00;;;9.50
41593;BMP180;28026;48.562;14.440;2024-03-08T00:36:37;93744.00;;;9.40
41593;BMP180;28026;48.562;14.440;2024-03-08T00:39:08;93735.00;;;9.40
41593;BMP180;28026;48.562;14.440;2024-03-08T00:41:39;93737.00;;;9.40
41593;BMP180;28026;48.562;14.440;2024-03-08T00:44:10;93739.00;;;9.40
41593;BMP180;28026;48.562;14.440;2024-03-08T00:46:41;93732.00;;;9.30
41593;BMP180;28026;48.562;14.440;2024-03-08T00:49:13;93739.00;;;9.30
41593;BMP180;28026;48.562;14.440;2024-03-08T00:51:44;93737.00;;;9.30
41593;BMP180;28026;48.562;14.440;2024-03-08T00:54:14;93731.00;;;9.30
41593;BMP180;28026;48.562;14.440;2024-03-08T00:56:46;93736.00;;;9.30
41593;BMP180;28026;48.562;14.440;2024-03-08T00:59:17;93739.00;;;9.30
41593;BMP180;28026;48.562;14.440;2024-03-08T01:01:48;93735.00;;;9.30
41593;BMP180;28026;48.562;14.440;2024-03-08T01:04:19;93731.00;;;9.20
41593;BMP180;28026;48.562;14.440;2024-03-08T01:06:51;93730.00;;;9.20
41593;BMP180;28026;48.562;14.440;2024-03-08T01:09:23;93733.00;;;9.20
41593;BMP180;28026;48.562;14.440;2024-03-08T01:11:55;93714.00;;;9.20
41593;BMP180;28026;48.562;14.440;2024-03-08T01:14:26;93721.00;;;9.10
41593;BMP180;28026;48.562;14.440;2024-03-08T01:16:57;93727.00;;;9.10
41593;BMP180;28026;48.562;14.440;2024-03-08T01:19:27;93725.00;;;9.10
41593;BMP180;28026;48.562;14.440;2024-03-08T01:21:58;93719.00;;;9.00
41593;BMP180;28026;48.562;14.440;2024-03-08T01:24:29;93716.00;;;8.90
41593;BMP180;28026;48.562;14.440;2024-03-08T01:27:00;93725.00;;;8.90
41593;BMP180;28026;48.562;14.440;2024-03-08T01:29:31;93707.00;;;8.90
41593;BMP180;28026;48.562;14.440;2024-03-08T01:32:03;93714.00;;;8.90
41593;BMP180;28026;48.562;14.440;2024-03-08T01:34:34;93703.00;;;8.90
41593;BMP180;28026;48.562;14.440;2024-03-08T01:37:05;93705.00;;;8.90
41593;BMP180;28026;48.562;14.440;2024-03-08T01:39:37;93689.00;;;8.80
41593;BMP180;28026;48.562;14.440;2024-03-08T01:42:08;93690.00;;;8.70
41593;BMP180;28026;48.562;14.440;2024-03-08T01:44:39;93686.00;;;8.60
41593;BMP180;28026;48.562;14.440;2024-03-08T01:47:10;93685.00;;;8.50
41593;BMP180;28026;48.562;14.440;2024-03-08T01:49:42;93676.00;;;8.50
41593;BMP180;28026;48.562;14.440;2024-03-08T01:52:14;93675.00;;;8.40
41593;BMP180;28026;48.562;14.440;2024-03-08T01:54:46;93669.00;;;8.40
41593;BMP180;28026;48.562;14.440;2024-03-08T01:57:17;93669.00;;;8.40
41593;BMP180;28026;48.562;14.440;2024-03-08T01:59:48;93655.00;;;8.40
41593;BMP180;28026;48.562;14.440;2024-03-08T02:02:19;93653.00;;;8.30
41593;BMP180;28026;48.562;14.440;2024-03-08T02:04:51;93648.00;;;8.30
41593;BMP180;28026;48.562;14.440;2024-03-08T02:07:23;93645.00;;;8.20
41593;BMP180;28026;48.562;14.440;2024-03-08T02:09:54;93631.00;;;8.20
41593;BMP180;28026;48.562;14.440;2024-03-08T02:12:25;93642.00;;;8.20
41593;BMP180;28026;48.562;14.440;2024-03-08T02:14:55;93632.00;;;8.20
41593;BMP180;28026;48.562;14.440;2024-03-08T02:17:26;93627.00;;;8.20
41593;BMP180;28026;48.562;14.440;2024-03-08T02:19:58;93620.00;;;8.10
41593;BMP180;28026;48.562;14.440;2024-03-08T02:22:30;93638.00;;;8.20
41593;BMP180;28026;48.562;14.440;2024-03-08T02:25:02;93632.00;;;8.20
41593;BMP180;28026;48.562;14.440;2024-03-08T02:27:33;93630.00;;;8.20
41593;BMP180;28026;48.562;14.440;2024-03-08T02:30:05;93633.00;;;8.20
41593;BMP180;28026;48.562;14.440;2024-03-08T02:32:36;93650.00;;;8.30
41593;BMP180;28026;48.562;14.440;2024-03-08T02:35:07;93655.00;;;8.30
41593;BMP180;28026;48.562;14.440;2024-03-08T02:37:37;93653.00;;;8.20
41593;BMP180;28026;48.562;14.440;2024-03-08T02:40:09;93658.00;;;8.20
41593;BMP180;28026;48.562;14.440;2024-03-08T02:42:42;93650.00;;;8.20
41593;BMP180;28026;48.562;14.440;2024-03-08T02:45:13;93644.00;;;8.20
41593;BMP180;28026;48.562;14.440;2024-03-08T02:47:44;93654.00;;;8.20
41593;BMP180;28026;48.562;14.440;2024-03-08T02:50:15;93647.00;;;8.20
41593;BMP180;28026;48.562;14.440;2024-03-08T02:52:46;93640.00;;;8.20
41593;BMP180;28026;48.562;14.440;2024-03-08T02:55:17;93629.00;;;8.20
41593;BMP180;28026;48.562;14.440;2024-03-08T02:57:49;93629.00;;;8.20
41593;BMP180;28026;48.562;14.440;2024-03-08T03:00:20;93632.00;;;8.20
41593;BMP180;28026;48.562;14.440;2024-03-08T03:02:53;93629.00;;;8.20
41593;BMP180;28026;48.562;14.440;2024-03-08T03:05:24;93625.00;;;8.20
41593;BMP180;28026;48.562;14.440;2024-03-08T03:07:56;93632.00;;;8.10
41593;BMP180;28026;48.562;14.440;2024-03-08T03:10:28;93622.00;;;8.10
41593;BMP180;28026;48.562;14.440;2024-03-08T03:12:59;93637.00;;;8.00
41593;BMP180;28026;48.562;14.440;2024-03-08T03:15:30;93635.00;;;8.00
41593;BMP180;28026;48.562;14.440;2024-03-08T03:18:01;93630.00;;;8.00
41593;BMP180;28026;48.562;14.440;2024-03-08T03:20:31;93618.00;;;7.90
41593;BMP180;28026;48.562;14.440;2024-03-08T03:23:10;93621.00;;;7.90
41593;BMP180;28026;48.562;14.440;2024-03-08T03:25:44;93628.00;;;7.90
41593;BMP180;28026;48.562;14.440;2024-03-08T03:28:16;93625.00;;;7.90
41593;BMP180;28026;48.562;14.440;2024-03-08T03:30:48;93627.00;;;7.80
41593;BMP180;28026;48.562;14.440;2024-03-08T03:33:19;93621.00;;;7.80
41593;BMP180;28026;48.562;14.440;2024-03-08T03:35:50;93623.00;;;7.80
41593;BMP180;28026;48.562;14.440;2024-03-08T03:38:22;93618.00;;;7.80
41593;BMP180;28026;48.562;14.440;2024-03-08T03:40:54;93621.00;;;7.80
41593;BMP180;28026;48.562;14.440;2024-03-08T03:43:27;93617.00;;;7.80
41593;BMP180;28026;48.562;14.440;2024-03-08T03:45:58;93600.00;;;7.70
41593;BMP180;28026;48.562;14.440;2024-03-08T03:48:29;93617.00;;;7.70
41593;BMP180;28026;48.562;14.440;2024-03-08T03:51:00;93600.00;;;7.70
41593;BMP180;28026;48.562;14.440;2024-03-08T03:53:31;93603.00;;;7.60
41593;BMP180;28026;48.562;14.440;2024-03-08T03:56:01;93608.00;;;7.60
41593;BMP180;28026;48.562;14.440;2024-03-08T03:58:33;93608.00;;;7.60
41593;BMP180;28026;48.562;14.440;2024-03-08T04:01:07;93604.00;;;7.60
41593;BMP180;28026;48.562;14.440;2024-03-08T04:03:41;93608.00;;;7.60
41593;BMP180;28026;48.562;14.440;2024-03-08T04:06:13;93609.00;;;7.60
41593;BMP180;28026;48.562;14.440;2024-03-08T04:08:44;93597.00;;;7.60
41593;BMP180;28026;48.562;14.440;2024-03-08T04:11:15;93616.00;;;7.70
41593;BMP180;28026;48.562;14.440;2024-03-08T04:13:47;93615.00;;;7.70
41593;BMP180;28026;48.562;14.440;2024-03-08T04:16:18;93612.00;;;7.70
41593;BMP180;28026;48.562;14.440;2024-03-08T04:18:49;93609.00;;;7.70
41593;BMP180;28026;48.562;14.440;2024-03-08T04:21:20;93610.00;;;7.70
41593;BMP180;28026;48.562;14.440;2024-03-08T04:23:51;93607.00;;;7.70
41593;BMP180;28026;48.562;14.440;2024-03-08T04:26:22;93604.00;;;7.70
41593;BMP180;28026;48.562;14.440;2024-03-08T04:28:53;93591.00;;;7.60
41593;BMP180;28026;48.562;14.440;2024-03-08T04:31:24;93597.00;;;7.60
41593;BMP180;28026;48.562;14.440;2024-03-08T04:33:57;93595.00;;;7.60
41593;BMP180;28026;48.562;14.440;2024-03-08T04:36:27;93597.00;;;7.50
41593;BMP180;28026;48.562;14.440;2024-03-08T04:38:59;93589.00;;;7.50
41593;BMP180;28026;48.562;14.440;2024-03-08T04:41:30;93599.00;;;7.50
41593;BMP180;28026;48.562;14.440;2024-03-08T04:44:01;93605.00;;;7.50
41593;BMP180;28026;48.562;14.440;2024-03-08T04:46:31;93604.00;;;7.50
41593;BMP180;28026;48.562;14.440;2024-03-08T04:49:02;93609.00;;;7.60
41593;BMP180;28026;48.562;14.440;2024-03-08T04:51:33;93598.00;;;7.60
41593;BMP180;28026;48.562;14.440;2024-03-08T04:54:04;93607.00;;;7.70
41593;BMP180;28026;48.562;14.440;2024-03-08T04:56:35;93605.00;;;7.70
41593;BMP180;28026;48.562;14.440;2024-03-08T04:59:06;93598.00;;;7.60
41593;BMP180;28026;48.562;14.440;2024-03-08T05:01:38;93600.00;;;7.60
41593;BMP180;28026;48.562;14.440;2024-03-08T05:04:09;93597.00;;;7.60
41593;BMP180;28026;48.562;14.440;2024-03-08T05:06:40;93597.00;;;7.60
41593;BMP180;28026;48.562;14.440;2024-03-08T05:09:11;93590.00;;;7.60
41593;BMP180;28026;48.562;14.440;2024-03-08T05:11:49;93586.00;;;7.60
41593;BMP180;28026;48.562;14.440;2024-03-08T05:14:20;93585.00;;;7.60
41593;BMP180;28026;48.562;14.440;2024-03-08T05:16:51;93585.00;;;7.60
41593;BMP180;28026;48.562;14.440;2024-03-08T05:19:22;93582.00;;;7.60
41593;BMP180;28026;48.562;14.440;2024-03-08T05:21:53;93580.00;;;7.60
41593;BMP180;28026;48.562;14.440;2024-03-08T05:24:24;93577.00;;;7.60
41593;BMP180;28026;48.562;14.440;2024-03-08T05:26:54;93575.00;;;7.50
41593;BMP180;28026;48.562;14.440;2024-03-08T05:29:26;93572.00;;;7.50
41593;BMP180;28026;48.562;14.440;2024-03-08T05:31:57;93578.00;;;7.40
41593;BMP180;28026;48.562;14.440;2024-03-08T05:34:28;93564.00;;;7.40
41593;BMP180;28026;48.562;14.440;2024-03-08T05:36:59;93566.00;;;7.40
41593;BMP180;28026;48.562;14.440;2024-03-08T05:39:30;93567.00;;;7.30
41593;BMP180;28026;48.562;14.440;2024-03-08T05:42:01;93573.00;;;7.40
41593;BMP180;28026;48.562;14.440;2024-03-08T05:44:32;93569.00;;;7.40
41593;BMP180;28026;48.562;14.440;2024-03-08T05:47:03;93563.00;;;7.40
41593;BMP180;28026;48.562;14.440;2024-03-08T05:49:34;93570.00;;;7.40
41593;BMP180;28026;48.562;14.440;2024-03-08T05:52:04;93564.00;;;7.50
41593;BMP180;28026;48.562;14.440;2024-03-08T05:54:35;93557.00;;;7.50
41593;BMP180;28026;48.562;14.440;2024-03-08T05:57:06;93571.00;;;7.60
41593;BMP180;28026;48.562;14.440;2024-03-08T05:59:37;93562.00;;;7.60
41593;BMP180;28026;48.562;14.440;2024-03-08T06:02:08;93565.00;;;7.70
41593;BMP180;28026;48.562;14.440;2024-03-08T06:04:39;93565.00;;;7.70
41593;BMP180;28026;48.562;14.440;2024-03-08T06:07:11;93568.00;;;7.70
41593;BMP180;28026;48.562;14.440;2024-03-08T06:09:43;93563.00;;;7.80
41593;BMP180;28026;48.562;14.440;2024-03-08T06:12:16;93568.00;;;7.80
41593;BMP180;28026;48.562;14.440;2024-03-08T06:14:49;93557.00;;;7.80
41593;BMP180;28026;48.562;14.440;2024-03-08T06:17:20;93563.00;;;7.90
41593;BMP180;28026;48.562;14.440;2024-03-08T06:19:56;93570.00;;;8.00
41593;BMP180;28026;48.562;14.440;2024-03-08T06:22:27;93554.00;;;8.00
41593;BMP180;28026;48.562;14.440;2024-03-08T06:24:58;93554.00;;;8.10
41593;BMP180;28026;48.562;14.440;2024-03-08T06:27:29;93557.00;;;8.20
41593;BMP180;28026;48.562;14.440;2024-03-08T06:30:00;93572.00;;;8.30
41593;BMP180;28026;48.562;14.440;2024-03-08T06:32:31;93560.00;;;8.40
41593;BMP180;28026;48.562;14.440;2024-03-08T06:35:06;93569.00;;;8.50
41593;BMP180;28026;48.562;14.440;2024-03-08T06:37:37;93564.00;;;8.60
41593;BMP180;28026;48.562;14.440;2024-03-08T06:40:09;93562.00;;;8.70
41593;BMP180;28026;48.562;14.440;2024-03-08T06:42:44;93567.00;;;8.80
41593;BMP180;28026;48.562;14.440;2024-03-08T06:45:16;93565.00;;;8.90
41593;BMP180;28026;48.562;14.440;2024-03-08T06:47:51;93563.00;;;9.00
41593;BMP180;28026;48.562;14.440;2024-03-08T06:50:21;93562.00;;;9.20
41593;BMP180;28026;48.562;14.440;2024-03-08T06:52:52;93556.00;;;9.20
41593;BMP180;28026;48.562;14.440;2024-03-08T06:55:24;93558.00;;;9.30
41593;BMP180;28026;48.562;14.440;2024-03-08T06:57:54;93552.00;;;9.40
41593;BMP180;28026;48.562;14.440;2024-03-08T07:00:25;93554.00;;;9.50
41593;BMP180;28026;48.562;14.440;2024-03-08T07:02:59;93534.00;;;9.60
41593;BMP180;28026;48.562;14.440;2024-03-08T07:05:33;93545.00;;;9.80
41593;BMP180;28026;48.562;14.440;2024-03-08T07:08:05;93553.00;;;9.90
41593;BMP180;28026;48.562;14.440;2024-03-08T07:10:36;93555.00;;;10.00
41593;BMP180;28026;48.562;14.440;2024-03-08T07:13:08;93560.00;;;10.20
41593;BMP180;28026;48.562;14.440;2024-03-08T07:15:40;93550.00;;;10.30
41593;BMP180;28026;48.562;14.440;2024-03-08T07:18:11;93556.00;;;10.50
41593;BMP180;28026;48.562;14.440;2024-03-08T07:20:45;93537.00;;;10.60
41593;BMP180;28026;48.562;14.440;2024-03-08T07:23:16;93550.00;;;10.70
41593;BMP180;28026;48.562;14.440;2024-03-08T07:26:05;93543.00;;;10.90
41593;BMP180;28026;48.562;14.440;2024-03-08T07:28:36;93545.00;;;10.90
41593;BMP180;28026;48.562;14.440;2024-03-08T07:31:07;93554.00;;;11.00
41593;BMP180;28026;48.562;14.440;2024-03-08T07:33:46;93539.00;;;11.10
41593;BMP180;28026;48.562;14.440;2024-03-08T07:36:17;93545.00;;;11.10
41593;BMP180;28026;48.562;14.440;2024-03-08T07:38:48;93545.00;;;11.10
41593;BMP180;28026;48.562;14.440;2024-03-08T07:41:19;93545.00;;;11.20
41593;BMP180;28026;48.562;14.440;2024-03-08T07:43:50;93539.00;;;11.20
41593;BMP180;28026;48.562;14.440;2024-03-08T07:46:21;93534.00;;;11.30
41593;BMP180;28026;48.562;14.440;2024-03-08T07:48:53;93527.00;;;11.40
41593;BMP180;28026;48.562;14.440;2024-03-08T07:51:24;93543.00;;;11.50
41593;BMP180;28026;48.562;14.440;2024-03-08T07:53:55;93541.00;;;11.60
41593;BMP180;28026;48.562;14.440;2024-03-08T07:56:25;93536.00;;;11.80
41593;BMP180;28026;48.562;14.440;2024-03-08T07:58:56;93541.00;;;11.90
41593;BMP180;28026;48.562;14.440;2024-03-08T08:01:27;93543.00;;;12.00
41593;BMP180;28026;48.562;14.440;2024-03-08T08:03:58;93546.00;;;12.10
41593;BMP180;28026;48.562;14.440;2024-03-08T08:06:29;93542.00;;;12.30
41593;BMP180;28026;48.562;14.440;2024-03-08T08:09:03;93535.00;;;12.40
41593;BMP180;28026;48.562;14.440;2024-03-08T08:11:34;93541.00;;;12.50
41593;BMP180;28026;48.562;14.440;2024-03-08T08:14:05;93538.00;;;12.50
41593;BMP180;28026;48.562;14.440;2024-03-08T08:16:36;93522.00;;;12.50
41593;BMP180;28026;48.562;14.440;2024-03-08T08:19:08;93533.00;;;12.60
41593;BMP180;28026;48.562;14.440;2024-03-08T08:21:38;93527.00;;;12.70
41593;BMP180;28026;48.562;14.440;2024-03-08T08:24:10;93517.00;;;12.80
41593;BMP180;28026;48.562;14.440;2024-03-08T08:26:41;93525.00;;;12.90
41593;BMP180;28026;48.562;14.440;2024-03-08T08:29:12;93527.00;;;12.90
41593;BMP180;28026;48.562;14.440;2024-03-08T08:31:43;93521.00;;;12.90
41593;BMP180;28026;48.562;14.440;2024-03-08T08:34:13;93528.00;;;13.10
41593;BMP180;28026;48.562;14.440;2024-03-08T08:36:45;93531.00;;;13.10
41593;BMP180;28026;48.562;14.440;2024-03-08T08:39:16;93525.00;;;13.20
41593;BMP180;28026;48.562;14.440;2024-03-08T08:41:47;93511.00;;;13.40
41593;BMP180;28026;48.562;14.440;2024-03-08T08:44:18;93514.00;;;13.40
41593;BMP180;28026;48.562;14.440;2024-03-08T08:46:49;93513.00;;;13.50
41593;BMP180;28026;48.562;14.440;2024-03-08T08:49:20;93524.00;;;13.50
41593;BMP180;28026;48.562;14.440;2024-03-08T08:51:51;93504.00;;;13.60
41593;BMP180;28026;48.562;14.440;2024-03-08T08:54:22;93505.00;;;13.70
41593;BMP180;28026;48.562;14.440;2024-03-08T08:56:55;93505.00;;;13.80
41593;BMP180;28026;48.562;14.440;2024-03-08T08:59:26;93508.00;;;14.00
41593;BMP180;28026;48.562;14.440;2024-03-08T09:01:57;93502.00;;;13.80
41593;BMP180;28026;48.562;14.440;2024-03-08T09:04:27;93503.00;;;13.90
41593;BMP180;28026;48.562;14.440;2024-03-08T09:06:59;93500.00;;;14.10
41593;BMP180;28026;48.562;14.440;2024-03-08T09:09:32;93502.00;;;14.10
41593;BMP180;28026;48.562;14.440;2024-03-08T09:12:03;93488.00;;;14.20
41593;BMP180;28026;48.562;14.440;2024-03-08T09:14:34;93489.00;;;14.20
41593;BMP180;28026;48.562;14.440;2024-03-08T09:17:05;93490.00;;;14.30
41593;BMP180;28026;48.562;14.440;2024-03-08T09:19:38;93483.00;;;14.50
41593;BMP180;28026;48.562;14.440;2024-03-08T09:22:10;93485.00;;;14.60
41593;BMP180;28026;48.562;14.440;2024-03-08T09:24:41;93481.00;;;14.70
41593;BMP180;28026;48.562;14.440;2024-03-08T09:27:13;93484.00;;;14.80
41593;BMP180;28026;48.562;14.440;2024-03-08T09:29:44;93480.00;;;14.80
41593;BMP180;28026;48.562;14.440;2024-03-08T09:32:15;93471.00;;;14.80
41593;BMP180;28026;48.562;14.440;2024-03-08T09:34:47;93480.00;;;14.80
41593;BMP180;28026;48.562;14.440;2024-03-08T09:37:18;93475.00;;;14.80
41593;BMP180;28026;48.562;14.440;2024-03-08T09:39:49;93487.00;;;14.80
41593;BMP180;28026;48.562;14.440;2024-03-08T09:42:20;93475.00;;;14.80
41593;BMP180;28026;48.562;14.440;2024-03-08T09:44:51;93479.00;;;14.90
41593;BMP180;28026;48.562;14.440;2024-03-08T09:47:22;93478.00;;;14.90
41593;BMP180;28026;48.562;14.440;2024-03-08T09:49:55;93478.00;;;15.00
41593;BMP180;28026;48.562;14.440;2024-03-08T09:52:26;93487.00;;;15.00
41593;BMP180;28026;48.562;14.440;2024-03-08T09:54:57;93475.00;;;14.90
41593;BMP180;28026;48.562;14.440;2024-03-08T09:57:28;93476.00;;;15.00
41593;BMP180;28026;48.562;14.440;2024-03-08T09:59:59;93482.00;;;15.00
41593;BMP180;28026;48.562;14.440;2024-03-08T10:02:30;93474.00;;;15.10
41593;BMP180;28026;48.562;14.440;2024-03-08T10:05:01;93459.00;;;15.10
41593;BMP180;28026;48.562;14.440;2024-03-08T10:07:34;93466.00;;;15.20
41593;BMP180;28026;48.562;14.440;2024-03-08T10:10:05;93460.00;;;15.30
41593;BMP180;28026;48.562;14.440;2024-03-08T10:12:38;93462.00;;;15.30
41593;BMP180;28026;48.562;14.440;2024-03-08T10:15:09;93465.00;;;15.40
41593;BMP180;28026;48.562;14.440;2024-03-08T10:17:42;93473.00;;;15.40
41593;BMP180;28026;48.562;14.440;2024-03-08T10:20:17;93467.00;;;15.40
41593;BMP180;28026;48.562;14.440;2024-03-08T10:22:49;93467.00;;;15.40
41593;BMP180;28026;48.562;14.440;2024-03-08T10:25:22;93456.00;;;15.40
41593;BMP180;28026;48.562;14.440;2024-03-08T10:27:55;93462.00;;;15.50
41593;BMP180;28026;48.562;14.440;2024-03-08T10:30:26;93461.00;;;15.60
41593;BMP180;28026;48.562;14.440;2024-03-08T10:32:58;93466.00;;;15.60
41593;BMP180;28026;48.562;14.440;2024-03-08T10:35:29;93454.00;;;15.70
41593;BMP180;28026;48.562;14.440;2024-03-08T10:38:03;93452.00;;;15.80
41593;BMP180;28026;48.562;14.440;2024-03-08T10:40:38;93452.00;;;15.80
41593;BMP180;28026;48.562;14.440;2024-03-08T10:43:18;93451.00;;;16.00
41593;BMP180;28026;48.562;14.440;2024-03-08T10:46:21;93456.00;;;16.00
41593;BMP180;28026;48.562;14.440;2024-03-08T10:49:01;93447.00;;;16.00
41593;BMP180;28026;48.562;14.440;2024-03-08T10:51:37;93446.00;;;16.20
41593;BMP180;28026;48.562;14.440;2024-03-08T10:54:14;93444.00;;;16.40
41593;BMP180;28026;48.562;14.440;2024-03-08T10:56:48;93439.00;;;16.50
41593;BMP180;28026;48.562;14.440;2024-03-08T10:59:20;93442.00;;;16.60
41593;BMP180;28026;48.562;14.440;2024-03-08T11:01:52;93437.00;;;16.70
41593;BMP180;28026;48.562;14.440;2024-03-08T11:04:23;93414.00;;;16.70
41593;BMP180;28026;48.562;14.440;2024-03-08T11:07:01;93435.00;;;16.90
41593;BMP180;28026;48.562;14.440;2024-03-08T11:09:38;93435.00;;;17.00
41593;BMP180;28026;48.562;14.440;2024-03-08T11:14:58;93419.00;;;17.30
41593;BMP180;28026;48.562;14.440;2024-03-08T11:20:02;93419.00;;;17.40
41593;BMP180;28026;48.562;14.440;2024-03-08T11:22:38;93409.00;;;17.60
41593;BMP180;28026;48.562;14.440;2024-03-08T11:30:39;93403.00;;;17.80
41593;BMP180;28026;48.562;14.440;2024-03-08T11:33:16;93396.00;;;17.90
41593;BMP180;28026;48.562;14.440;2024-03-08T11:35:47;93403.00;;;18.00
41593;BMP180;28026;48.562;14.440;2024-03-08T11:38:18;93408.00;;;18.20
41593;BMP180;28026;48.562;14.440;2024-03-08T11:40:50;93400.00;;;18.20
41593;BMP180;28026;48.562;14.440;2024-03-08T11:43:21;93392.00;;;18.10
41593;BMP180;28026;48.562;14.440;2024-03-08T11:46:07;93397.00;;;18.20
41593;BMP180;28026;48.562;14.440;2024-03-08T11:48:43;93387.00;;;18.20
41593;BMP180;28026;48.562;14.440;2024-03-08T11:51:15;93390.00;;;18.10
41593;BMP180;28026;48.562;14.440;2024-03-08T11:53:49;93389.00;;;18.10
41593;BMP180;28026;48.562;14.440;2024-03-08T11:56:20;93371.00;;;18.30
41593;BMP180;28026;48.562;14.440;2024-03-08T11:58:56;93372.00;;;18.40
41593;BMP180;28026;48.562;14.440;2024-03-08T12:01:29;93368.00;;;18.60
41593;BMP180;28026;48.562;14.440;2024-03-08T12:04:01;93369.00;;;18.60
41593;BMP180;28026;48.562;14.440;2024-03-08T12:06:38;93369.00;;;18.40
41593;BMP180;28026;48.562;14.440;2024-03-08T12:09:11;93362.00;;;18.40
41593;BMP180;28026;48.562;14.440;2024-03-08T12:11:43;93366.00;;;18.50
41593;BMP180;28026;48.562;14.440;2024-03-08T12:14:15;93358.00;;;18.50
41593;BMP180;28026;48.562;14.440;2024-03-08T12:16:46;93361.00;;;18.30
41593;BMP180;28026;48.562;14.440;2024-03-08T12:19:19;93362.00;;;18.30
41593;BMP180;28026;48.562;14.440;2024-03-08T12:21:49;93366.00;;;18.30
41593;BMP180;28026;48.562;14.440;2024-03-08T12:24:20;93358.00;;;18.40
41593;BMP180;28026;48.562;14.440;2024-03-08T12:26:51;93358.00;;;18.40
41593;BMP180;28026;48.562;14.440;2024-03-08T12:29:27;93363.00;;;18.10
41593;BMP180;28026;48.562;14.440;2024-03-08T12:31:59;93356.00;;;18.00
41593;BMP180;28026;48.562;14.440;2024-03-08T12:34:31;93352.00;;;18.10
41593;BMP180;28026;48.562;14.440;2024-03-08T12:37:02;93356.00;;;18.20
41593;BMP180;28026;48.562;14.440;2024-03-08T12:39:37;93348.00;;;18.10
41593;BMP180;28026;48.562;14.440;2024-03-08T12:42:08;93336.00;;;18.10
41593;BMP180;28026;48.562;14.440;2024-03-08T12:44:39;93345.00;;;18.20
41593;BMP180;28026;48.562;14.440;2024-03-08T12:47:13;93348.00;;;18.20
41593;BMP180;28026;48.562;14.440;2024-03-08T12:49:45;93338.00;;;18.40
41593;BMP180;28026;48.562;14.440;2024-03-08T12:52:16;93333.00;;;18.60
41593;BMP180;28026;48.562;14.440;2024-03-08T12:54:48;93333.00;;;18.60
41593;BMP180;28026;48.562;14.440;2024-03-08T12:57:19;93335.00;;;18.50
41593;BMP180;28026;48.562;14.440;2024-03-08T12:59:50;93338.00;;;18.50
41593;BMP180;28026;48.562;14.440;2024-03-08T13:02:23;93330.00;;;18.30
41593;BMP180;28026;48.562;14.440;2024-03-08T13:04:54;93335.00;;;18.00
41593;BMP180;28026;48.562;14.440;2024-03-08T13:07:28;93321.00;;;17.70
41593;BMP180;28026;48.562;14.440;2024-03-08T13:09:59;93328.00;;;17.90
41593;BMP180;28026;48.562;14.440;2024-03-08T13:12:30;93323.00;;;18.10
41593;BMP180;28026;48.562;14.440;2024-03-08T13:15:01;93330.00;;;18.30
41593;BMP180;28026;48.562;14.440;2024-03-08T13:17:33;93327.00;;;18.30
41593;BMP180;28026;48.562;14.440;2024-03-08T13:20:04;93340.00;;;18.20
41593;BMP180;28026;48.562;14.440;2024-03-08T13:22:35;93317.00;;;18.20
41593;BMP180;28026;48.562;14.440;2024-03-08T13:25:07;93328.00;;;18.30
41593;BMP180;28026;48.562;14.440;2024-03-08T13:27:43;93323.00;;;18.40
41593;BMP180;28026;48.562;14.440;2024-03-08T13:30:14;93332.00;;;18.40
41593;BMP180;28026;48.562;14.440;2024-03-08T13:32:48;93322.00;;;18.50
41593;BMP180;28026;48.562;14.440;2024-03-08T13:35:19;93313.00;;;18.60
41593;BMP180;28026;48.562;14.440;2024-03-08T13:37:54;93317.00;;;18.70
41593;BMP180;28026;48.562;14.440;2024-03-08T13:40:25;93323.00;;;18.70
41593;BMP180;28026;48.562;14.440;2024-03-08T13:42:56;93321.00;;;18.70
41593;BMP180;28026;48.562;14.440;2024-03-08T13:45:27;93326.00;;;18.60
41593;BMP180;28026;48.562;14.440;2024-03-08T13:47:58;93321.00;;;18.70
41593;BMP180;28026;48.562;14.440;2024-03-08T13:50:29;93311.00;;;18.70
41593;BMP180;28026;48.562;14.440;2024-03-08T13:53:00;93321.00;;;18.60
41593;BMP180;28026;48.562;14.440;2024-03-08T13:55:31;93315.00;;;18.60
41593;BMP180;28026;48.562;14.440;2024-03-08T13:58:04;93312.00;;;18.50
41593;BMP180;28026;48.562;14.440;2024-03-08T14:00:37;93313.00;;;18.50
41593;BMP180;28026;48.562;14.440;2024-03-08T14:03:09;93310.00;;;18.40
41593;BMP180;28026;48.562;14.440;2024-03-08T14:05:41;93310.00;;;18.40
41593;BMP180;28026;48.562;14.440;2024-03-08T14:08:13;93313.00;;;18.40
41593;BMP180;28026;48.562;14.440;2024-03-08T14:10:44;93314.00;;;18.20
41593;BMP180;28026;48.562;14.440;2024-03-08T14:13:17;93309.00;;;18.20
41593;BMP180;28026;48.562;14.440;2024-03-08T14:15:49;93306.00;;;18.20
41593;BMP180;28026;48.562;14.440;2024-03-08T14:18:20;93296.00;;;18.10
41593;BMP180;28026;48.562;14.440;2024-03-08T14:20:51;93292.00;;;18.00
41593;BMP180;28026;48.562;14.440;2024-03-08T14:23:21;93295.00;;;18.00
41593;BMP180;28026;48.562;14.440;2024-03-08T14:25:52;93290.00;;;18.10
41593;BMP180;28026;48.562;14.440;2024-03-08T14:28:24;93284.00;;;18.20
41593;BMP180;28026;48.562;14.440;2024-03-08T14:30:57;93284.00;;;18.20
41593;BMP180;28026;48.562;14.440;2024-03-08T14:33:28;93281.00;;;18.10
41593;BMP180;28026;48.562;14.440;2024-03-08T14:35:59;93285.00;;;18.10
41593;BMP180;28026;48.562;14.440;2024-03-08T14:38:31;93269.00;;;17.90